sensor_id;sensor_type;location;lat;lon;timestamp;pressure;altitude;pressure_sealevel;temperature;humidity
67430;BME280;54298;52.076;5.264;2022-09-03T00:00:56;101115.0;;;19.16;43.68
67430;BME280;54298;52.076;5.264;2022-09-03T00:02:39;101111.0;;;19.09;43.57
67430;BME280;54298;52.076;5.264;2022-09-03T00:04:21;101109.0;;;19.16;43.5
67430;BME280;54298;52.076;5.264;2022-09-03T00:07:55;101106.0;;;19.11;43.58
67430;BME280;54298;52.076;5.264;2022-09-03T00:09:38;101106.0;;;19.11;43.3
67430;BME280;54298;52.076;5.264;2022-09-03T00:11:19;101102.0;;;19.06;43.26
67430;BME280;54298;52.076;5.264;2022-09-03T00:13:01;101102.0;;;19.04;43.37
67430;BME280;54298;52.076;5.264;2022-09-03T00:14:44;101102.0;;;19.02;43.55
67430;BME280;54298;52.076;5.264;2022-09-03T00:18:17;101105.0;;;18.96;43.84
67430;BME280;54298;52.076;5.264;2022-09-03T00:19:59;101107.0;;;18.96;43.74
67430;BME280;54298;52.076;5.264;2022-09-03T00:21:45;101105.0;;;18.91;43.79
67430;BME280;54298;52.076;5.264;2022-09-03T00:23:25;101109.0;;;18.95;43.84
67430;BME280;54298;52.076;5.264;2022-09-03T00:25:09;101107.0;;;18.89;44.13
67430;BME280;54298;52.076;5.264;2022-09-03T00:28:35;101103.0;;;18.86;43.79
67430;BME280;54298;52.076;5.264;2022-09-03T00:30:17;101103.0;;;18.84;44.06
67430;BME280;54298;52.076;5.264;2022-09-03T00:31:57;101101.0;;;18.79;44.28
67430;BME280;54298;52.076;5.264;2022-09-03T00:33:39;101096.0;;;18.8;43.97
67430;BME280;54298;52.076;5.264;2022-09-03T00:37:02;101097.0;;;18.79;44.05
67430;BME280;54298;52.076;5.264;2022-09-03T00:38:40;101096.0;;;18.77;43.91
67430;BME280;54298;52.076;5.264;2022-09-03T00:40:27;101096.0;;;18.84;44.05
67430;BME280;54298;52.076;5.264;2022-09-03T00:42:32;101093.0;;;18.82;44.27
67430;BME280;54298;52.076;5.264;2022-09-03T00:44:56;101090.0;;;18.81;44.1
67430;BME280;54298;52.076;5.264;2022-09-03T00:47:07;101093.0;;;18.78;44.3
67430;BME280;54298;52.076;5.264;2022-09-03T00:48:56;101091.0;;;18.79;44.35
67430;BME280;54298;52.076;5.264;2022-09-03T00:50:56;101092.0;;;18.75;44.18
67430;BME280;54298;52.076;5.264;2022-09-03T00:52:46;101093.0;;;18.68;44.31
67430;BME280;54298;52.076;5.264;2022-09-03T00:54:38;101091.0;;;18.75;44.12
67430;BME280;54298;52.076;5.264;2022-09-03T00:58:19;101087.0;;;18.7;44.17
67430;BME280;54298;52.076;5.264;2022-09-03T01:00:06;101087.0;;;18.7;44.26
67430;BME280;54298;52.076;5.264;2022-09-03T01:01:49;101089.0;;;18.68;44.33
67430;BME280;54298;52.076;5.264;2022-09-03T01:03:39;101088.0;;;18.62;44.57
67430;BME280;54298;52.076;5.264;2022-09-03T01:05:41;101097.0;;;18.66;44.59
67430;BME280;54298;52.076;5.264;2022-09-03T01:08:19;101096.0;;;18.66;44.58
67430;BME280;54298;52.076;5.264;2022-09-03T01:10:15;101092.0;;;18.68;44.5
67430;BME280;54298;52.076;5.264;2022-09-03T01:12:05;101094.0;;;18.64;44.7
67430;BME280;54298;52.076;5.264;2022-09-03T01:13:49;101090.0;;;18.66;44.52
67430;BME280;54298;52.076;5.264;2022-09-03T01:15:39;101089.0;;;18.62;44.48
67430;BME280;54298;52.076;5.264;2022-09-03T01:19:27;101088.0;;;18.54;44.97
67430;BME280;54298;52.076;5.264;2022-09-03T01:21:23;101091.0;;;18.64;44.52
67430;BME280;54298;52.076;5.264;2022-09-03T01:23:42;101094.0;;;18.7;44.32
67430;BME280;54298;52.076;5.264;2022-09-03T01:26:42;101096.0;;;18.73;44.27
67430;BME280;54298;52.076;5.264;2022-09-03T01:28:36;101096.0;;;18.7;44.29
67430;BME280;54298;52.076;5.264;2022-09-03T01:30:18;101098.0;;;18.8;44.25
67430;BME280;54298;52.076;5.264;2022-09-03T01:33:48;101097.0;;;18.79;44.27
67430;BME280;54298;52.076;5.264;2022-09-03T01:35:33;101100.0;;;18.86;44.07
67430;BME280;54298;52.076;5.264;2022-09-03T01:37:28;101101.0;;;18.86;44.16
67430;BME280;54298;52.076;5.264;2022-09-03T01:39:11;101100.0;;;18.86;44.34
67430;BME280;54298;52.076;5.264;2022-09-03T01:41:00;101103.0;;;18.86;44.17
67430;BME280;54298;52.076;5.264;2022-09-03T01:42:52;101103.0;;;18.87;44.1
67430;BME280;54298;52.076;5.264;2022-09-03T01:44:47;101097.0;;;18.91;43.93
67430;BME280;54298;52.076;5.264;2022-09-03T01:48:26;101094.0;;;18.84;44.09
67430;BME280;54298;52.076;5.264;2022-09-03T01:50:12;101099.0;;;18.81;44.56
67430;BME280;54298;52.076;5.264;2022-09-03T01:52:04;101096.0;;;18.77;44.37
67430;BME280;54298;52.076;5.264;2022-09-03T01:54:05;101097.0;;;18.77;44.43
67430;BME280;54298;52.076;5.264;2022-09-03T01:56:35;101099.0;;;18.72;44.41
67430;BME280;54298;52.076;5.264;2022-09-03T01:58:23;101100.0;;;18.71;44.39
67430;BME280;54298;52.076;5.264;2022-09-03T02:00:07;101101.0;;;18.75;44.8
67430;BME280;54298;52.076;5.264;2022-09-03T02:01:48;101098.0;;;18.75;44.79
67430;BME280;54298;52.076;5.264;2022-09-03T02:03:32;101094.0;;;18.68;44.68
67430;BME280;54298;52.076;5.264;2022-09-03T02:06:56;101098.0;;;18.61;44.77
67430;BME280;54298;52.076;5.264;2022-09-03T02:08:34;101095.0;;;18.68;44.58
67430;BME280;54298;52.076;5.264;2022-09-03T02:10:13;101094.0;;;18.62;44.69
67430;BME280;54298;52.076;5.264;2022-09-03T02:11:53;101091.0;;;18.56;44.89
67430;BME280;54298;52.076;5.264;2022-09-03T02:15:17;101091.0;;;18.59;44.93
67430;BME280;54298;52.076;5.264;2022-09-03T02:16:56;101087.0;;;18.52;45.11
67430;BME280;54298;52.076;5.264;2022-09-03T02:18:37;101087.0;;;18.47;45.14
67430;BME280;54298;52.076;5.264;2022-09-03T02:20:18;101092.0;;;18.43;45.48
67430;BME280;54298;52.076;5.264;2022-09-03T02:23:34;101094.0;;;18.38;45.4
67430;BME280;54298;52.076;5.264;2022-09-03T02:25:11;101096.0;;;18.41;45.39
67430;BME280;54298;52.076;5.264;2022-09-03T02:26:49;101100.0;;;18.3;45.59
67430;BME280;54298;52.076;5.264;2022-09-03T02:30:05;101096.0;;;18.31;45.63
67430;BME280;54298;52.076;5.264;2022-09-03T02:31:42;101097.0;;;18.36;45.3
67430;BME280;54298;52.076;5.264;2022-09-03T02:33:18;101094.0;;;18.27;45.53
67430;BME280;54298;52.076;5.264;2022-09-03T02:34:54;101094.0;;;18.25;46.01
67430;BME280;54298;52.076;5.264;2022-09-03T02:38:11;101093.0;;;18.25;45.65
67430;BME280;54298;52.076;5.264;2022-09-03T02:39:51;101088.0;;;18.21;45.75
67430;BME280;54298;52.076;5.264;2022-09-03T02:41:26;101090.0;;;18.2;45.81
67430;BME280;54298;52.076;5.264;2022-09-03T02:44:47;101090.0;;;18.18;45.89
67430;BME280;54298;52.076;5.264;2022-09-03T02:46:31;101082.0;;;18.09;46.04
67430;BME280;54298;52.076;5.264;2022-09-03T02:48:16;101082.0;;;18.06;46.24
67430;BME280;54298;52.076;5.264;2022-09-03T02:49:56;101084.0;;;17.96;46.43
67430;BME280;54298;52.076;5.264;2022-09-03T02:51:33;101087.0;;;17.93;46.73
67430;BME280;54298;52.076;5.264;2022-09-03T02:54:48;101086.0;;;17.93;46.53
67430;BME280;54298;52.076;5.264;2022-09-03T02:58:06;101082.0;;;17.95;46.54
67430;BME280;54298;52.076;5.264;2022-09-03T03:01:20;101082.0;;;17.89;46.69
67430;BME280;54298;52.076;5.264;2022-09-03T03:02:57;101078.0;;;17.81;47.18
67430;BME280;54298;52.076;5.264;2022-09-03T03:04:33;101080.0;;;17.78;47.26
67430;BME280;54298;52.076;5.264;2022-09-03T03:06:09;101080.0;;;17.86;46.88
67430;BME280;54298;52.076;5.264;2022-09-03T03:09:23;101080.0;;;17.86;47.01
67430;BME280;54298;52.076;5.264;2022-09-03T03:11:01;101080.0;;;17.88;46.75
67430;BME280;54298;52.076;5.264;2022-09-03T03:12:38;101075.0;;;17.82;46.86
67430;BME280;54298;52.076;5.264;2022-09-03T03:15:55;101073.0;;;17.86;46.9
67430;BME280;54298;52.076;5.264;2022-09-03T03:17:31;101071.0;;;17.84;47.23
67430;BME280;54298;52.076;5.264;2022-09-03T03:19:07;101070.0;;;17.81;47.21
67430;BME280;54298;52.076;5.264;2022-09-03T03:22:19;101070.0;;;17.84;47.26
67430;BME280;54298;52.076;5.264;2022-09-03T03:23:56;101071.0;;;17.84;46.99
67430;BME280;54298;52.076;5.264;2022-09-03T03:25:33;101065.0;;;17.84;47.16
67430;BME280;54298;52.076;5.264;2022-09-03T03:27:10;101065.0;;;17.91;46.84
67430;BME280;54298;52.076;5.264;2022-09-03T03:30:26;101066.0;;;18.0;46.83
67430;BME280;54298;52.076;5.264;2022-09-03T03:32:02;101065.0;;;17.91;46.8
67430;BME280;54298;52.076;5.264;2022-09-03T03:33:39;101070.0;;;17.91;46.97
67430;BME280;54298;52.076;5.264;2022-09-03T03:36:52;101074.0;;;17.96;46.79
67430;BME280;54298;52.076;5.264;2022-09-03T03:38:28;101080.0;;;17.95;46.7
67430;BME280;54298;52.076;5.264;2022-09-03T03:40:06;101075.0;;;18.05;46.42
67430;BME280;54298;52.076;5.264;2022-09-03T03:41:42;101077.0;;;18.0;46.44
67430;BME280;54298;52.076;5.264;2022-09-03T03:44:55;101082.0;;;18.03;46.76
67430;BME280;54298;52.076;5.264;2022-09-03T03:46:32;101073.0;;;17.96;46.61
67430;BME280;54298;52.076;5.264;2022-09-03T03:48:10;101074.0;;;17.91;46.87
67430;BME280;54298;52.076;5.264;2022-09-03T03:51:23;101077.0;;;18.02;46.5
67430;BME280;54298;52.076;5.264;2022-09-03T03:52:59;101073.0;;;17.95;47.03
67430;BME280;54298;52.076;5.264;2022-09-03T03:54:35;101074.0;;;17.87;46.88
67430;BME280;54298;52.076;5.264;2022-09-03T03:57:50;101080.0;;;17.84;47.07
67430;BME280;54298;52.076;5.264;2022-09-03T03:59:26;101075.0;;;17.73;47.2
67430;BME280;54298;52.076;5.264;2022-09-03T04:01:04;101076.0;;;17.75;47.2
67430;BME280;54298;52.076;5.264;2022-09-03T04:02:41;101075.0;;;17.8;47.12
67430;BME280;54298;52.076;5.264;2022-09-03T04:05:54;101075.0;;;17.73;47.29
67430;BME280;54298;52.076;5.264;2022-09-03T04:07:31;101070.0;;;17.72;47.14
67430;BME280;54298;52.076;5.264;2022-09-03T04:09:07;101071.0;;;17.64;47.66
67430;BME280;54298;52.076;5.264;2022-09-03T04:12:19;101068.0;;;17.66;47.38
67430;BME280;54298;52.076;5.264;2022-09-03T04:13:55;101073.0;;;17.59;47.84
67430;BME280;54298;52.076;5.264;2022-09-03T04:15:31;101072.0;;;17.59;47.64
67430;BME280;54298;52.076;5.264;2022-09-03T04:18:44;101071.0;;;17.52;48.03
67430;BME280;54298;52.076;5.264;2022-09-03T04:20:21;101065.0;;;17.56;47.76
67430;BME280;54298;52.076;5.264;2022-09-03T04:21:57;101068.0;;;17.59;47.77
67430;BME280;54298;52.076;5.264;2022-09-03T04:23:35;101064.0;;;17.61;47.79
67430;BME280;54298;52.076;5.264;2022-09-03T04:26:49;101068.0;;;17.57;48.08
67430;BME280;54298;52.076;5.264;2022-09-03T04:28:26;101068.0;;;17.52;47.95
67430;BME280;54298;52.076;5.264;2022-09-03T04:30:04;101063.0;;;17.45;48.07
67430;BME280;54298;52.076;5.264;2022-09-03T04:34:28;101067.0;;;17.5;47.85
67430;BME280;54298;52.076;5.264;2022-09-03T04:36:07;101060.0;;;17.53;47.95
67430;BME280;54298;52.076;5.264;2022-09-03T04:39:21;101062.0;;;17.53;48.27
67430;BME280;54298;52.076;5.264;2022-09-03T04:40:58;101062.0;;;17.53;48.02
67430;BME280;54298;52.076;5.264;2022-09-03T04:42:34;101069.0;;;17.56;47.84
67430;BME280;54298;52.076;5.264;2022-09-03T04:45:46;101071.0;;;17.61;47.91
67430;BME280;54298;52.076;5.264;2022-09-03T04:47:23;101073.0;;;17.57;47.93
67430;BME280;54298;52.076;5.264;2022-09-03T04:48:59;101074.0;;;17.53;47.96
67430;BME280;54298;52.076;5.264;2022-09-03T04:52:12;101071.0;;;17.5;48.04
67430;BME280;54298;52.076;5.264;2022-09-03T04:53:53;101071.0;;;17.61;47.69
67430;BME280;54298;52.076;5.264;2022-09-03T04:55:32;101073.0;;;17.63;47.62
67430;BME280;54298;52.076;5.264;2022-09-03T04:57:09;101071.0;;;17.55;47.85
67430;BME280;54298;52.076;5.264;2022-09-03T05:00:23;101071.0;;;17.52;48.05
67430;BME280;54298;52.076;5.264;2022-09-03T05:01:59;101071.0;;;17.43;48.57
67430;BME280;54298;52.076;5.264;2022-09-03T05:03:36;101073.0;;;17.45;48.82
67430;BME280;54298;52.076;5.264;2022-09-03T05:06:49;101080.0;;;17.38;48.9
67430;BME280;54298;52.076;5.264;2022-09-03T05:08:25;101078.0;;;17.41;48.47
67430;BME280;54298;52.076;5.264;2022-09-03T05:10:05;101078.0;;;17.36;48.62
67430;BME280;54298;52.076;5.264;2022-09-03T05:11:42;101077.0;;;17.32;48.56
67430;BME280;54298;52.076;5.264;2022-09-03T05:14:55;101080.0;;;17.25;48.89
67430;BME280;54298;52.076;5.264;2022-09-03T05:16:31;101074.0;;;17.34;48.79
67430;BME280;54298;52.076;5.264;2022-09-03T05:18:07;101074.0;;;17.3;48.77
67430;BME280;54298;52.076;5.264;2022-09-03T05:21:21;101075.0;;;17.28;48.77
67430;BME280;54298;52.076;5.264;2022-09-03T05:23:01;101076.0;;;17.27;48.96
67430;BME280;54298;52.076;5.264;2022-09-03T05:24:37;101070.0;;;17.28;48.92
67430;BME280;54298;52.076;5.264;2022-09-03T05:27:53;101070.0;;;17.28;50.01
67430;BME280;54298;52.076;5.264;2022-09-03T05:29:29;101073.0;;;17.27;50.67
67430;BME280;54298;52.076;5.264;2022-09-03T05:31:07;101073.0;;;17.23;50.55
67430;BME280;54298;52.076;5.264;2022-09-03T05:32:44;101074.0;;;17.18;50.87
67430;BME280;54298;52.076;5.264;2022-09-03T05:36:00;101066.0;;;17.09;51.77
67430;BME280;54298;52.076;5.264;2022-09-03T05:37:36;101067.0;;;16.98;52.52
67430;BME280;54298;52.076;5.264;2022-09-03T05:39:12;101070.0;;;16.96;52.18
67430;BME280;54298;52.076;5.264;2022-09-03T05:42:27;101072.0;;;16.96;52.47
67430;BME280;54298;52.076;5.264;2022-09-03T05:44:05;101078.0;;;16.86;53.32
67430;BME280;54298;52.076;5.264;2022-09-03T05:45:41;101077.0;;;16.78;52.88
67430;BME280;54298;52.076;5.264;2022-09-03T05:47:17;101075.0;;;16.77;52.48
67430;BME280;54298;52.076;5.264;2022-09-03T05:50:30;101080.0;;;16.82;51.75
67430;BME280;54298;52.076;5.264;2022-09-03T05:52:06;101078.0;;;16.8;52.31
67430;BME280;54298;52.076;5.264;2022-09-03T05:53:44;101082.0;;;16.78;52.7
67430;BME280;54298;52.076;5.264;2022-09-03T05:56:56;101080.0;;;16.8;53.29
67430;BME280;54298;52.076;5.264;2022-09-03T05:58:34;101083.0;;;16.86;53.08
67430;BME280;54298;52.076;5.264;2022-09-03T06:00:11;101080.0;;;16.93;52.12
67430;BME280;54298;52.076;5.264;2022-09-03T06:03:25;101081.0;;;16.93;52.11
67430;BME280;54298;52.076;5.264;2022-09-03T06:05:01;101080.0;;;16.88;52.25
67430;BME280;54298;52.076;5.264;2022-09-03T06:06:39;101078.0;;;16.95;51.83
67430;BME280;54298;52.076;5.264;2022-09-03T06:08:15;101080.0;;;16.9;53.39
67430;BME280;54298;52.076;5.264;2022-09-03T06:11:29;101082.0;;;16.93;52.87
67430;BME280;54298;52.076;5.264;2022-09-03T06:13:06;101076.0;;;17.0;52.12
67430;BME280;54298;52.076;5.264;2022-09-03T06:14:42;101078.0;;;17.0;52.1
67430;BME280;54298;52.076;5.264;2022-09-03T06:17:55;101080.0;;;17.09;51.78
67430;BME280;54298;52.076;5.264;2022-09-03T06:19:31;101076.0;;;17.05;51.76
67430;BME280;54298;52.076;5.264;2022-09-03T06:21:08;101084.0;;;17.14;51.89
67430;BME280;54298;52.076;5.264;2022-09-03T06:24:26;101077.0;;;17.11;51.58
67430;BME280;54298;52.076;5.264;2022-09-03T06:26:04;101080.0;;;17.25;51.35
67430;BME280;54298;52.076;5.264;2022-09-03T06:27:41;101080.0;;;17.27;51.23
67430;BME280;54298;52.076;5.264;2022-09-03T06:29:18;101080.0;;;17.31;51.25
67430;BME280;54298;52.076;5.264;2022-09-03T06:32:42;101070.0;;;17.47;50.43
67430;BME280;54298;52.076;5.264;2022-09-03T06:34:18;101070.0;;;17.5;50.7
67430;BME280;54298;52.076;5.264;2022-09-03T06:35:57;101067.0;;;17.56;50.29
67430;BME280;54298;52.076;5.264;2022-09-03T06:37:38;101072.0;;;17.68;50.54
67430;BME280;54298;52.076;5.264;2022-09-03T06:40:53;101072.0;;;17.66;50.1
67430;BME280;54298;52.076;5.264;2022-09-03T06:42:30;101069.0;;;17.77;50.08
67430;BME280;54298;52.076;5.264;2022-09-03T06:44:10;101073.0;;;17.79;49.82
67430;BME280;54298;52.076;5.264;2022-09-03T06:45:55;101073.0;;;17.93;49.7
67430;BME280;54298;52.076;5.264;2022-09-03T06:49:10;101075.0;;;17.98;49.44
67430;BME280;54298;52.076;5.264;2022-09-03T06:50:55;101080.0;;;17.97;49.57
67430;BME280;54298;52.076;5.264;2022-09-03T06:52:41;101071.0;;;18.04;49.42
67430;BME280;54298;52.076;5.264;2022-09-03T06:54:17;101080.0;;;18.16;49.4
67430;BME280;54298;52.076;5.264;2022-09-03T06:57:32;101083.0;;;18.25;49.28
67430;BME280;54298;52.076;5.264;2022-09-03T06:59:10;101081.0;;;18.3;48.86
67430;BME280;54298;52.076;5.264;2022-09-03T07:00:46;101083.0;;;18.36;48.7
67430;BME280;54298;52.076;5.264;2022-09-03T07:04:01;101080.0;;;18.34;48.8
67430;BME280;54298;52.076;5.264;2022-09-03T07:05:38;101080.0;;;18.52;48.6
67430;BME280;54298;52.076;5.264;2022-09-03T07:07:15;101078.0;;;18.66;48.34
67430;BME280;54298;52.076;5.264;2022-09-03T07:08:51;101077.0;;;18.68;48.29
67430;BME280;54298;52.076;5.264;2022-09-03T07:12:05;101078.0;;;18.73;48.14
67430;BME280;54298;52.076;5.264;2022-09-03T07:13:45;101077.0;;;18.78;48.0
67430;BME280;54298;52.076;5.264;2022-09-03T07:15:22;101073.0;;;18.81;48.09
67430;BME280;54298;52.076;5.264;2022-09-03T07:18:35;101075.0;;;18.95;47.85
67430;BME280;54298;52.076;5.264;2022-09-03T07:20:12;101070.0;;;19.02;47.81
67430;BME280;54298;52.076;5.264;2022-09-03T07:21:48;101074.0;;;19.0;47.72
67430;BME280;54298;52.076;5.264;2022-09-03T07:25:01;101077.0;;;19.13;47.52
67430;BME280;54298;52.076;5.264;2022-09-03T07:26:40;101074.0;;;19.14;47.49
67430;BME280;54298;52.076;5.264;2022-09-03T07:28:16;101077.0;;;19.36;46.98
67430;BME280;54298;52.076;5.264;2022-09-03T07:29:52;101081.0;;;19.45;46.95
67430;BME280;54298;52.076;5.264;2022-09-03T07:33:08;101073.0;;;19.59;46.87
67430;BME280;54298;52.076;5.264;2022-09-03T07:34:44;101073.0;;;19.68;46.59
67430;BME280;54298;52.076;5.264;2022-09-03T07:36:20;101075.0;;;19.66;46.6
67430;BME280;54298;52.076;5.264;2022-09-03T07:39:34;101073.0;;;19.79;46.22
67430;BME280;54298;52.076;5.264;2022-09-03T07:41:12;101076.0;;;19.77;46.21
67430;BME280;54298;52.076;5.264;2022-09-03T07:42:55;101071.0;;;19.77;45.93
67430;BME280;54298;52.076;5.264;2022-09-03T07:44:32;101073.0;;;19.95;45.73
67430;BME280;54298;52.076;5.264;2022-09-03T07:47:46;101080.0;;;20.09;45.72
67430;BME280;54298;52.076;5.264;2022-09-03T07:49:22;101078.0;;;20.16;45.44
67430;BME280;54298;52.076;5.264;2022-09-03T07:51:00;101076.0;;;20.21;44.86
67430;BME280;54298;52.076;5.264;2022-09-03T07:54:13;101073.0;;;20.3;44.22
67430;BME280;54298;52.076;5.264;2022-09-03T07:55:50;101075.0;;;20.47;44.74
67430;BME280;54298;52.076;5.264;2022-09-03T07:57:27;101076.0;;;20.58;44.13
67430;BME280;54298;52.076;5.264;2022-09-03T07:59:04;101078.0;;;20.71;43.73
67430;BME280;54298;52.076;5.264;2022-09-03T08:02:16;101078.0;;;20.8;43.21
67430;BME280;54298;52.076;5.264;2022-09-03T08:03:53;101080.0;;;20.75;44.04
67430;BME280;54298;52.076;5.264;2022-09-03T08:05:31;101083.0;;;20.95;43.14
67430;BME280;54298;52.076;5.264;2022-09-03T08:08:45;101083.0;;;21.01;42.33
67430;BME280;54298;52.076;5.264;2022-09-03T08:10:21;101083.0;;;21.12;42.04
67430;BME280;54298;52.076;5.264;2022-09-03T08:11:57;101083.0;;;21.35;42.08
67430;BME280;54298;52.076;5.264;2022-09-03T08:15:10;101085.0;;;21.4;41.67
67430;BME280;54298;52.076;5.264;2022-09-03T08:16:47;101086.0;;;21.56;41.53
67430;BME280;54298;52.076;5.264;2022-09-03T08:18:23;101090.0;;;21.6;41.4
67430;BME280;54298;52.076;5.264;2022-09-03T08:20:00;101084.0;;;21.81;41.12
67430;BME280;54298;52.076;5.264;2022-09-03T08:23:13;101087.0;;;21.76;41.0
67430;BME280;54298;52.076;5.264;2022-09-03T08:24:49;101087.0;;;21.85;40.42
67430;BME280;54298;52.076;5.264;2022-09-03T08:26:26;101090.0;;;21.84;40.31
67430;BME280;54298;52.076;5.264;2022-09-03T08:29:38;101089.0;;;21.89;39.76
67430;BME280;54298;52.076;5.264;2022-09-03T08:31:16;101092.0;;;22.1;40.06
67430;BME280;54298;52.076;5.264;2022-09-03T08:32:54;101084.0;;;21.98;39.71
67430;BME280;54298;52.076;5.264;2022-09-03T08:36:08;101090.0;;;22.14;39.42
67430;BME280;54298;52.076;5.264;2022-09-03T08:37:48;101090.0;;;22.11;39.44
67430;BME280;54298;52.076;5.264;2022-09-03T08:39:24;101090.0;;;22.34;39.49
67430;BME280;54298;52.076;5.264;2022-09-03T08:41:03;101089.0;;;22.37;39.25
67430;BME280;54298;52.076;5.264;2022-09-03T08:44:43;101089.0;;;22.57;39.22
67430;BME280;54298;52.076;5.264;2022-09-03T08:46:22;101088.0;;;22.54;39.67
67430;BME280;54298;52.076;5.264;2022-09-03T08:48:04;101085.0;;;22.62;39.56
67430;BME280;54298;52.076;5.264;2022-09-03T08:49:44;101089.0;;;22.75;39.54
67430;BME280;54298;52.076;5.264;2022-09-03T08:51:27;101091.0;;;22.86;39.67
67430;BME280;54298;52.076;5.264;2022-09-03T08:54:49;101094.0;;;22.81;39.85
67430;BME280;54298;52.076;5.264;2022-09-03T08:56:30;101093.0;;;22.89;39.15
67430;BME280;54298;52.076;5.264;2022-09-03T08:58:10;101092.0;;;22.9;38.94
67430;BME280;54298;52.076;5.264;2022-09-03T08:59:51;101090.0;;;22.91;38.69
67430;BME280;54298;52.076;5.264;2022-09-03T09:03:32;101094.0;;;23.01;38.4
67430;BME280;54298;52.076;5.264;2022-09-03T09:05:16;101092.0;;;23.06;38.32
67430;BME280;54298;52.076;5.264;2022-09-03T09:07:07;101093.0;;;23.0;38.14
67430;BME280;54298;52.076;5.264;2022-09-03T09:08:55;101090.0;;;23.11;38.17
67430;BME280;54298;52.076;5.264;2022-09-03T09:10:43;101092.0;;;23.12;38.36
67430;BME280;54298;52.076;5.264;2022-09-03T09:12:44;101087.0;;;23.18;38.17
67430;BME280;54298;52.076;5.264;2022-09-03T09:14:27;101092.0;;;23.35;38.03
67430;BME280;54298;52.076;5.264;2022-09-03T09:18:09;101085.0;;;23.27;37.78
67430;BME280;54298;52.076;5.264;2022-09-03T09:19:56;101089.0;;;23.19;38.26
67430;BME280;54298;52.076;5.264;2022-09-03T09:21:48;101090.0;;;23.32;38.17
67430;BME280;54298;52.076;5.264;2022-09-03T09:23:31;101093.0;;;23.45;37.87
67430;BME280;54298;52.076;5.264;2022-09-03T09:25:14;101085.0;;;23.48;37.74
67430;BME280;54298;52.076;5.264;2022-09-03T09:26:59;101086.0;;;23.59;37.53
67430;BME280;54298;52.076;5.264;2022-09-03T09:30:16;101081.0;;;23.61;37.54
67430;BME280;54298;52.076;5.264;2022-09-03T09:31:54;101078.0;;;23.57;37.94
67430;BME280;54298;52.076;5.264;2022-09-03T09:33:31;101085.0;;;23.74;37.92
67430;BME280;54298;52.076;5.264;2022-09-03T09:36:47;101083.0;;;23.74;37.29
67430;BME280;54298;52.076;5.264;2022-09-03T09:38:27;101086.0;;;23.79;37.19
67430;BME280;54298;52.076;5.264;2022-09-03T09:40:06;101090.0;;;23.91;37.31
67430;BME280;54298;52.076;5.264;2022-09-03T09:41:43;101089.0;;;23.84;37.06
67430;BME280;54298;52.076;5.264;2022-09-03T09:45:08;101089.0;;;23.93;36.76
67430;BME280;54298;52.076;5.264;2022-09-03T09:46:46;101092.0;;;24.06;36.75
67430;BME280;54298;52.076;5.264;2022-09-03T09:48:26;101092.0;;;24.07;36.78
67430;BME280;54298;52.076;5.264;2022-09-03T09:50:16;101089.0;;;24.02;36.51
67430;BME280;54298;52.076;5.264;2022-09-03T09:53:40;101090.0;;;24.15;36.17
67430;BME280;54298;52.076;5.264;2022-09-03T09:55:19;101092.0;;;24.3;35.89
67430;BME280;54298;52.076;5.264;2022-09-03T09:57:00;101094.0;;;24.21;36.07
67430;BME280;54298;52.076;5.264;2022-09-03T09:58:38;101094.0;;;24.36;36.06
67430;BME280;54298;52.076;5.264;2022-09-03T10:02:09;101090.0;;;24.35;35.62
67430;BME280;54298;52.076;5.264;2022-09-03T10:03:49;101093.0;;;24.43;35.96
67430;BME280;54298;52.076;5.264;2022-09-03T10:05:28;101093.0;;;24.46;35.44
67430;BME280;54298;52.076;5.264;2022-09-03T10:07:20;101088.0;;;24.4;35.64
67430;BME280;54298;52.076;5.264;2022-09-03T10:09:05;101090.0;;;24.53;35.53
67430;BME280;54298;52.076;5.264;2022-09-03T10:12:26;101085.0;;;24.61;35.31
67430;BME280;54298;52.076;5.264;2022-09-03T10:14:11;101091.0;;;24.71;35.12
67430;BME280;54298;52.076;5.264;2022-09-03T10:15:57;101087.0;;;24.78;35.29
67430;BME280;54298;52.076;5.264;2022-09-03T10:17:44;101084.0;;;24.7;35.46
67430;BME280;54298;52.076;5.264;2022-09-03T10:19:28;101085.0;;;24.72;35.56
67430;BME280;54298;52.076;5.264;2022-09-03T10:21:23;101087.0;;;24.76;35.26
67430;BME280;54298;52.076;5.264;2022-09-03T10:24:55;101082.0;;;24.85;35.01
67430;BME280;54298;52.076;5.264;2022-09-03T10:26:35;101081.0;;;24.96;34.82
67430;BME280;54298;52.076;5.264;2022-09-03T10:28:12;101082.0;;;25.03;34.6
67430;BME280;54298;52.076;5.264;2022-09-03T10:29:48;101076.0;;;25.09;34.37
67430;BME280;54298;52.076;5.264;2022-09-03T10:33:23;101081.0;;;25.14;34.42
67430;BME280;54298;52.076;5.264;2022-09-03T10:35:10;101074.0;;;25.24;34.21
67430;BME280;54298;52.076;5.264;2022-09-03T10:36:59;101073.0;;;25.28;34.37
67430;BME280;54298;52.076;5.264;2022-09-03T10:38:41;101075.0;;;25.37;34.31
67430;BME280;54298;52.076;5.264;2022-09-03T10:40:25;101076.0;;;25.47;33.85
67430;BME280;54298;52.076;5.264;2022-09-03T10:42:21;101071.0;;;25.58;34.21
67430;BME280;54298;52.076;5.264;2022-09-03T10:44:27;101066.0;;;25.67;33.97
67430;BME280;54298;52.076;5.264;2022-09-03T10:50:26;101064.0;;;25.77;33.6
67430;BME280;54298;52.076;5.264;2022-09-03T10:52:11;101067.0;;;25.92;33.5
67430;BME280;54298;52.076;5.264;2022-09-03T10:54:11;101064.0;;;26.02;33.74
67430;BME280;54298;52.076;5.264;2022-09-03T10:55:59;101062.0;;;25.86;33.04
67430;BME280;54298;52.076;5.264;2022-09-03T10:57:44;101060.0;;;26.1;32.99
67430;BME280;54298;52.076;5.264;2022-09-03T10:59:36;101058.0;;;26.07;32.94
67430;BME280;54298;52.076;5.264;2022-09-03T11:01:27;101060.0;;;26.07;33.08
67430;BME280;54298;52.076;5.264;2022-09-03T11:03:25;101050.0;;;26.16;33.04
67430;BME280;54298;52.076;5.264;2022-09-03T11:05:17;101057.0;;;26.19;32.99
67430;BME280;54298;52.076;5.264;2022-09-03T11:08:41;101056.0;;;26.16;32.89
67430;BME280;54298;52.076;5.264;2022-09-03T11:10:22;101057.0;;;26.29;32.54
67430;BME280;54298;52.076;5.264;2022-09-03T11:12:04;101060.0;;;26.33;32.61
67430;BME280;54298;52.076;5.264;2022-09-03T11:13:46;101060.0;;;26.35;32.68